Time;durP1;ratioP1;P1;durP2;ratioP2;P2;SDS_P1;SDS_P2;PMS_P1;PMS_P2;Temp;Humidity;BMP_temperature;BMP_pressure;BME280_temperature;BME280_humidity;BME280_pressure;Samples;Min_cycle;Max_cycle;Signal;HPM_P1;HPM_P2
2022/06/08 00:02:28;;;;;;;2.37;2.10;;;17.20;35.00;;;;;;4994057;28;20187;-68
2022/06/08 00:04:54;;;;;;;3.40;2.60;;;17.20;36.50;;;;;;4993928;28;20185;-68
2022/06/08 00:07:19;;;;;;;3.77;2.50;;;17.20;35.90;;;;;;4993903;28;20179;-68
2022/06/08 00:09:45;;;;;;;2.50;2.30;;;17.10;36.30;;;;;;4992636;28;20299;-68
2022/06/08 00:12:12;;;;;;;2.83;2.37;;;17.10;38.90;;;;;;4993751;28;20234;-68
2022/06/08 00:14:38;;;;;;;3.40;2.80;;;17.00;41.70;;;;;;4993665;28;20206;-68
2022/06/08 00:17:04;;;;;;;3.53;2.23;;;17.00;42.20;;;;;;4993922;28;20187;-68
2022/06/08 00:19:30;;;;;;;2.43;2.23;;;17.00;44.40;;;;;;4993589;28;20232;-67
2022/06/08 00:21:55;;;;;;;2.83;2.23;;;17.00;45.40;;;;;;4993931;28;20181;-67
2022/06/08 00:24:21;;;;;;;2.60;2.40;;;16.90;46.50;;;;;;4993365;28;20686;-67
2022/06/08 00:26:47;;;;;;;5.50;2.63;;;16.90;47.70;;;;;;4993868;28;20167;-68
2022/06/08 00:29:13;;;;;;;4.33;2.27;;;16.90;49.30;;;;;;4993609;28;20182;-67
2022/06/08 00:31:39;;;;;;;3.47;2.90;;;16.80;49.90;;;;;;4993822;28;20198;-66
2022/06/08 00:34:04;;;;;;;4.23;2.50;;;16.80;49.90;;;;;;4993773;28;20182;-67
2022/06/08 00:36:30;;;;;;;3.00;2.40;;;16.80;52.40;;;;;;4993912;28;20630;-69
2022/06/08 00:38:55;;;;;;;3.33;2.60;;;16.70;52.50;;;;;;4992549;28;20309;-68
2022/06/08 00:41:39;;;;;;;4.87;2.67;;;16.60;53.90;;;;;;4992595;28;20175;-68
2022/06/08 00:44:30;;;;;;;3.37;2.70;;;16.60;55.80;;;;;;4993415;28;20658;-68
2022/06/08 00:46:56;;;;;;;2.53;2.33;;;16.60;56.80;;;;;;4993540;28;20175;-68
2022/06/08 00:49:31;;;;;;;3.00;2.70;;;16.60;57.60;;;;;;4993647;28;20526;-68
2022/06/08 00:52:00;;;;;;;3.27;2.83;;;16.60;60.50;;;;;;4993522;28;20314;-68
2022/06/08 00:54:30;;;;;;;4.30;3.00;;;16.50;61.50;;;;;;4993665;28;20310;-66
2022/06/08 00:57:21;;;;;;;4.33;2.93;;;16.40;72.10;;;;;;4996984;28;20635;-68
2022/06/08 00:59:54;;;;;;;3.17;2.50;;;16.30;78.10;;;;;;4997176;28;20221;-68
2022/06/08 01:02:20;;;;;;;3.57;2.57;;;16.30;82.60;;;;;;4997426;28;20176;-67
2022/06/08 01:04:46;;;;;;;3.93;2.67;;;16.30;85.10;;;;;;4997770;28;20190;-68
2022/06/08 01:07:19;;;;;;;2.60;2.40;;;16.30;86.80;;;;;;4995901;28;20176;-67
2022/06/08 01:09:45;;;;;;;4.50;2.50;;;16.30;90.00;;;;;;4997349;28;20176;-68
2022/06/08 01:12:14;;;;;;;3.03;2.60;;;16.30;91.50;;;;;;4996998;28;20211;-68
2022/06/08 01:14:40;;;;;;;4.20;3.70;;;16.30;90.60;;;;;;4997216;28;20631;-67
2022/06/08 01:17:10;;;;;;;3.20;2.53;;;16.20;92.90;;;;;;4997105;28;20183;-66
2022/06/08 01:19:37;;;;;;;4.20;2.97;;;16.00;94.50;;;;;;4995761;28;20183;-68
2022/06/08 01:22:05;;;;;;;3.83;2.97;;;15.90;99.90;;;;;;4996991;28;20210;-67
2022/06/08 01:24:32;;;;;;;3.07;2.70;;;15.90;99.90;;;;;;4996739;28;20223;-67
2022/06/08 01:27:22;;;;;;;5.33;4.47;;;15.80;99.90;;;;;;4996792;28;20651;-68
2022/06/08 01:30:13;;;;;;;8.77;3.10;;;15.70;99.90;;;;;;4996854;28;20179;-67
2022/06/08 01:33:00;;;;;;;4.47;3.10;;;15.70;99.90;;;;;;4996884;28;20294;-68
2022/06/08 01:35:38;;;;;;;4.03;3.07;;;15.70;99.90;;;;;;4996762;28;20182;-67
2022/06/08 01:38:09;;;;;;;8.07;3.70;;;15.60;99.90;;;;;;4997018;28;20237;-68
2022/06/08 01:40:41;;;;;;;11.07;7.87;;;15.70;99.90;;;;;;4996519;28;20270;-68
2022/06/08 01:43:32;;;;;;;5.70;5.17;;;15.70;99.90;;;;;;4996277;28;20172;-68
2022/06/08 01:46:29;;;;;;;7.23;4.90;;;15.60;99.90;;;;;;4995313;28;20168;-68
2022/06/08 01:49:37;;;;;;;4.03;3.73;;;15.70;99.90;;;;;;4995843;28;20190;-68
2022/06/08 01:52:19;;;;;;;4.30;3.40;;;15.70;99.90;;;;;;4995829;28;20250;-68
2022/06/08 01:55:06;;;;;;;3.63;3.33;;;15.90;99.90;;;;;;4996474;28;20171;-68
2022/06/08 01:58:12;;;;;;;3.53;2.97;;;16.00;99.90;;;;;;4996439;28;20195;-68
2022/06/08 02:00:56;;;;;;;3.17;2.97;;;16.10;99.90;;;;;;4996433;28;20218;-69
2022/06/08 02:03:24;;;;;;;3.30;3.00;;;16.20;99.90;;;;;;4996291;28;20578;-69
2022/06/08 02:06:09;;;;;;;3.40;2.60;;;16.30;99.90;;;;;;4996179;28;20193;-67
2022/06/08 02:08:41;;;;;;;4.30;2.93;;;16.30;99.90;;;;;;4995468;28;20202;-68
2022/06/08 02:11:09;;;;;;;3.97;3.57;;;16.30;99.90;;;;;;4995870;28;20180;-69
2022/06/08 02:13:47;;;;;;;4.00;3.70;;;16.20;99.90;;;;;;4994801;28;20214;-67
2022/06/08 02:16:37;;;;;;;5.17;3.77;;;16.20;99.90;;;;;;4994825;28;20167;-67
2022/06/08 02:19:29;;;;;;;4.50;4.10;;;16.00;99.90;;;;;;4996261;28;20250;-68
2022/06/08 02:22:06;;;;;;;5.43;4.90;;;16.00;99.90;;;;;;4995906;28;20184;-68
2022/06/08 02:24:41;;;;;;;6.03;4.70;;;15.90;99.90;;;;;;4995558;28;20227;-70
2022/06/08 02:27:27;;;;;;;6.43;5.20;;;15.90;99.90;;;;;;4995493;28;20186;-69
2022/06/08 02:30:10;;;;;;;7.77;5.20;;;15.90;99.90;;;;;;4995959;28;20206;-67
2022/06/08 02:35:35;;;;;;;5.30;4.03;;;15.80;99.90;;;;;;4996029;28;20175;-68
2022/06/08 02:38:07;;;;;;;4.80;4.13;;;15.80;99.90;;;;;;4995769;28;20554;-68
2022/06/08 02:40:36;;;;;;;5.80;4.23;;;15.90;99.90;;;;;;4995267;28;20175;-67
2022/06/08 02:43:08;;;;;;;6.70;4.23;;;15.90;99.90;;;;;;4995547;28;20226;-67
2022/06/08 02:45:40;;;;;;;5.70;4.30;;;15.90;99.90;;;;;;4995622;28;20178;-68
2022/06/08 02:48:13;;;;;;;4.53;3.70;;;15.90;99.90;;;;;;4995467;28;20179;-68
2022/06/08 02:50:57;;;;;;;6.03;3.50;;;15.90;99.90;;;;;;4995222;28;20168;-67
2022/06/08 02:53:23;;;;;;;3.70;3.10;;;15.90;99.90;;;;;;4995090;28;20446;-69
2022/06/08 02:56:20;;;;;;;3.83;3.40;;;16.00;99.90;;;;;;4995150;28;20167;-69
2022/06/08 02:59:06;;;;;;;3.97;3.30;;;16.10;99.90;;;;;;4995062;28;20186;-68
2022/06/08 03:02:00;;;;;;;3.47;3.17;;;16.10;99.90;;;;;;4995236;28;20619;-71
2022/06/08 03:05:02;;;;;;;3.83;3.07;;;16.20;99.90;;;;;;4995239;28;20171;-67
2022/06/08 03:07:36;;;;;;;2.60;2.40;;;16.30;99.90;;;;;;4995131;28;20170;-67
2022/06/08 03:10:08;;;;;;;3.47;3.17;;;16.40;99.70;;;;;;4994606;28;20221;-68
2022/06/08 03:12:43;;;;;;;5.10;2.67;;;16.40;98.40;;;;;;4994929;28;20215;-68
2022/06/08 03:15:14;;;;;;;3.33;2.30;;;16.50;95.80;;;;;;4994700;28;20634;-68
2022/06/08 03:17:39;;;;;;;3.40;2.70;;;16.50;94.00;;;;;;4994657;28;20254;-68
2022/06/08 03:20:08;;;;;;;3.07;2.80;;;16.50;92.50;;;;;;4994727;28;20259;-68
2022/06/08 03:22:34;;;;;;;5.13;2.97;;;16.60;92.20;;;;;;4993075;28;20179;-68
2022/06/08 03:25:00;;;;;;;4.17;2.50;;;16.70;90.80;;;;;;4994275;28;20249;-68
2022/06/08 03:27:26;;;;;;;2.90;2.50;;;16.70;84.50;;;;;;4994684;28;20179;-67
2022/06/08 03:29:52;;;;;;;5.90;2.87;;;16.80;79.30;;;;;;4994402;28;20175;-68
2022/06/08 03:32:18;;;;;;;6.53;2.73;;;16.70;77.80;;;;;;4994363;28;20215;-68
2022/06/08 03:34:43;;;;;;;2.67;2.13;;;16.80;75.40;;;;;;4994609;28;20643;-68
2022/06/08 03:37:09;;;;;;;2.90;2.63;;;16.80;71.80;;;;;;4994489;28;20626;-68
2022/06/08 03:39:35;;;;;;;4.33;2.17;;;16.80;71.30;;;;;;4993611;28;20658;-67
2022/06/08 03:42:01;;;;;;;4.53;2.47;;;16.80;68.60;;;;;;4994255;28;20175;-67
2022/06/08 03:44:27;;;;;;;5.27;2.60;;;16.80;69.50;;;;;;4994284;28;20653;-68
2022/06/08 03:46:59;;;;;;;4.13;2.57;;;16.90;69.10;;;;;;4994064;28;20187;-68
2022/06/08 03:49:25;;;;;;;3.00;1.90;;;17.10;62.30;;;;;;4994198;28;20167;-68
2022/06/08 03:51:54;;;;;;;3.27;2.30;;;17.20;52.40;;;;;;4992164;28;20235;-68
2022/06/08 03:54:22;;;;;;;6.90;2.60;;;17.20;45.90;;;;;;4993842;28;20175;-67
2022/06/08 03:56:52;;;;;;;4.57;2.50;;;17.10;52.80;;;;;;4994026;28;20195;-68
2022/06/08 03:59:18;;;;;;;5.67;2.73;;;17.00;55.00;;;;;;4994172;28;20289;-67
2022/06/08 04:01:44;;;;;;;5.87;2.70;;;17.10;56.00;;;;;;4993896;28;20203;-68
2022/06/08 04:04:11;;;;;;;7.03;2.90;;;17.00;54.60;;;;;;4993810;28;20241;-67
2022/06/08 04:06:37;;;;;;;2.80;2.50;;;17.00;58.20;;;;;;4993543;28;20541;-68
2022/06/08 04:09:03;;;;;;;4.07;2.40;;;17.00;56.70;;;;;;4993616;28;20171;-68
2022/06/08 04:11:29;;;;;;;3.97;2.33;;;16.90;55.30;;;;;;4992971;28;20319;-67
2022/06/08 04:13:55;;;;;;;3.00;2.70;;;16.90;60.80;;;;;;4993709;28;20260;-68
2022/06/08 04:16:21;;;;;;;4.87;2.53;;;16.90;60.00;;;;;;4992450;28;20275;-68
2022/06/08 04:18:47;;;;;;;4.57;2.23;;;16.80;61.40;;;;;;4993936;28;20210;-68
2022/06/08 04:21:15;;;;;;;4.20;2.60;;;16.80;61.90;;;;;;4993152;28;20175;-68
2022/06/08 04:23:43;;;;;;;4.87;2.87;;;16.90;63.90;;;;;;4993524;28;20602;-67
2022/06/08 04:26:09;;;;;;;6.90;2.40;;;16.90;61.40;;;;;;4993165;28;20254;-68
2022/06/08 04:28:35;;;;;;;3.87;2.20;;;17.00;58.20;;;;;;4993688;28;20175;-68
2022/06/08 04:31:02;;;;;;;5.37;2.40;;;17.00;54.10;;;;;;4998094;28;20172;-68
2022/06/08 04:33:28;;;;;;;4.87;2.43;;;17.00;54.60;;;;;;4999651;28;20215;-68
2022/06/08 04:35:54;;;;;;;9.73;4.00;;;17.00;55.60;;;;;;4999753;28;20736;-67
2022/06/08 04:38:19;;;;;;;7.60;6.17;;;17.10;54.60;;;;;;4999422;28;20171;-68
2022/06/08 04:40:46;;;;;;;17.30;15.60;;;17.00;51.00;;;;;;4999632;28;20167;-69
2022/06/08 04:43:12;;;;;;;21.57;18.07;;;17.10;51.40;;;;;;5000031;28;20278;-68
2022/06/08 04:45:38;;;;;;;34.93;27.40;;;17.20;49.60;;;;;;4999671;28;20273;-68
2022/06/08 04:48:04;;;;;;;29.57;26.37;;;17.20;42.90;;;;;;4999420;28;20207;-68
2022/06/08 04:50:30;;;;;;;27.13;22.53;;;17.10;49.10;;;;;;4999157;28;20179;-67
2022/06/08 04:52:56;;;;;;;33.97;22.13;;;17.20;48.40;;;;;;4998753;28;20217;-68
2022/06/08 04:55:25;;;;;;;41.50;30.53;;;17.20;44.90;;;;;;4999320;28;20175;-68
2022/06/08 04:57:51;;;;;;;49.27;32.97;;;17.20;49.20;;;;;;4999808;28;20174;-68
2022/06/08 05:00:23;;;;;;;26.63;18.00;;;17.20;47.20;;;;;;4999144;28;20168;-67
2022/06/08 05:02:50;;;;;;;29.57;19.60;;;17.20;43.00;;;;;;4999150;28;20254;-69
2022/06/08 05:05:21;;;;;;;18.17;12.87;;;17.20;45.80;;;;;;4999213;28;20171;-68
2022/06/08 05:07:48;;;;;;;17.27;9.80;;;17.20;46.60;;;;;;4999373;28;20251;-69
2022/06/08 05:10:14;;;;;;;18.37;12.03;;;17.20;46.40;;;;;;4998989;28;20728;-69
2022/06/08 05:12:41;;;;;;;13.90;8.83;;;17.20;47.10;;;;;;4998879;28;20245;-68
2022/06/08 05:15:13;;;;;;;15.97;9.13;;;17.20;48.60;;;;;;4999249;28;20523;-68
2022/06/08 05:17:39;;;;;;;12.40;6.47;;;17.30;47.30;;;;;;4998798;28;20175;-67
2022/06/08 05:20:07;;;;;;;13.23;6.77;;;17.40;42.00;;;;;;4998443;28;20222;-68
2022/06/08 05:22:33;;;;;;;10.85;4.85;;;17.50;36.20;;;;;;4999314;28;20163;-68
2022/06/08 05:25:00;;;;;;;7.15;4.30;;;17.60;33.90;;;;;;4998046;28;20278;-68
2022/06/08 05:27:26;;;;;;;11.77;4.13;;;17.60;29.50;;;;;;4998317;28;20261;-67
2022/06/08 05:29:52;;;;;;;5.30;3.50;;;17.60;31.80;;;;;;4998573;28;20623;-67
2022/06/08 05:32:17;;;;;;;9.10;4.65;;;17.60;31.30;;;;;;4999422;28;20214;-68
2022/06/08 05:34:43;;;;;;;9.88;3.97;;;17.50;33.10;;;;;;4998208;28;20647;-68
2022/06/08 05:37:09;;;;;;;7.72;3.40;;;17.60;33.80;;;;;;4997673;28;20175;-68
2022/06/08 05:39:34;;;;;;;12.40;4.47;;;17.50;34.80;;;;;;4998713;28;20238;-68
2022/06/08 05:42:00;;;;;;;9.35;4.13;;;17.60;31.50;;;;;;4996548;28;20401;-68
2022/06/08 05:44:26;;;;;;;9.60;3.70;;;17.70;27.00;;;;;;4995217;28;20168;-68
2022/06/08 05:46:51;;;;;;;8.60;3.40;;;17.70;26.40;;;;;;4995821;28;20186;-68
2022/06/08 05:49:18;;;;;;;6.63;3.55;;;17.80;24.60;;;;;;4995246;28;20520;-69
2022/06/08 05:51:44;;;;;;;11.32;4.07;;;17.80;27.10;;;;;;4994874;28;20175;-68
2022/06/08 05:54:10;;;;;;;5.75;2.65;;;17.90;22.80;;;;;;4995796;28;20195;-68
2022/06/08 05:56:36;;;;;;;5.13;2.73;;;17.80;23.50;;;;;;4994929;28;20179;-68
2022/06/08 05:59:03;;;;;;;5.97;2.90;;;17.90;23.80;;;;;;4994230;28;20270;-68
2022/06/08 06:01:30;;;;;;;7.70;3.05;;;17.80;23.50;;;;;;4994871;28;20568;-68
2022/06/08 06:03:55;;;;;;;9.53;3.30;;;17.90;24.10;;;;;;4994630;28;20202;-68
2022/06/08 06:06:21;;;;;;;6.85;3.05;;;18.00;23.90;;;;;;4994820;28;20210;-68
2022/06/08 06:08:46;;;;;;;9.07;3.20;;;17.90;20.30;;;;;;4995219;28;20203;-68
2022/06/08 06:11:13;;;;;;;7.68;3.05;;;17.90;23.50;;;;;;4995226;28;20207;-68
2022/06/08 06:13:40;;;;;;;6.73;3.00;;;17.90;24.50;;;;;;4994494;28;20222;-68
2022/06/08 06:16:06;;;;;;;8.73;3.03;;;17.80;25.60;;;;;;4994389;28;20183;-68
2022/06/08 06:18:32;;;;;;;11.63;4.00;;;17.80;24.30;;;;;;4994903;28;20176;-68
2022/06/08 06:20:58;;;;;;;9.82;3.90;;;17.80;28.80;;;;;;4994964;28;20172;-68
2022/06/08 06:23:25;;;;;;;6.43;3.50;;;17.80;41.00;;;;;;4994241;28;20226;-69
2022/06/08 06:25:51;;;;;;;8.48;3.65;;;17.70;49.00;;;;;;4994863;28;20225;-68
2022/06/08 06:28:17;;;;;;;8.23;3.90;;;17.70;50.90;;;;;;4994263;28;20179;-68
2022/06/08 06:30:43;;;;;;;8.45;3.83;;;17.60;59.70;;;;;;4994546;28;20583;-68
2022/06/08 06:33:12;;;;;;;12.88;4.07;;;17.60;56.20;;;;;;4993632;28;20672;-69
2022/06/08 06:35:38;;;;;;;11.20;4.07;;;17.60;62.80;;;;;;4994622;28;20174;-68
2022/06/08 06:38:04;;;;;;;9.30;4.37;;;17.60;68.00;;;;;;4994285;28;20565;-68
2022/06/08 06:40:31;;;;;;;7.97;4.47;;;17.60;71.10;;;;;;4994159;28;20294;-69
2022/06/08 06:42:56;;;;;;;8.32;4.15;;;17.60;80.90;;;;;;4994738;28;20399;-68
2022/06/08 06:45:22;;;;;;;7.13;3.90;;;17.60;69.10;;;;;;4984625;28;20278;-68
2022/06/08 06:47:48;;;;;;;7.80;4.20;;;17.40;72.00;;;;;;4993513;28;20245;-68
2022/06/08 06:50:15;;;;;;;8.53;3.80;;;17.40;77.60;;;;;;4990052;28;20209;-71
2022/06/08 06:52:41;;;;;;;9.00;3.83;;;17.30;83.00;;;;;;4997682;28;20206;-67
2022/06/08 06:55:10;;;;;;;14.33;4.30;;;17.30;79.00;;;;;;5001815;28;20178;-68
2022/06/08 06:57:36;;;;;;;9.07;4.00;;;17.40;78.50;;;;;;4987073;28;20202;-68
2022/06/08 07:00:03;;;;;;;9.03;4.00;;;17.30;70.40;;;;;;4994250;28;20183;-67
2022/06/08 07:02:29;;;;;;;9.53;3.70;;;17.40;77.20;;;;;;5007583;28;20195;-67
2022/06/08 07:04:54;;;;;;;8.68;3.83;;;17.40;69.10;;;;;;4994193;28;20182;-68
2022/06/08 07:07:20;;;;;;;5.93;3.70;;;17.50;68.10;;;;;;4993043;28;20179;-68
2022/06/08 07:09:46;;;;;;;9.43;4.10;;;17.50;66.30;;;;;;5008796;28;20273;-69
2022/06/08 07:12:13;;;;;;;8.77;3.83;;;17.50;66.50;;;;;;4996445;28;20202;-69
2022/06/08 07:14:39;;;;;;;11.70;3.80;;;17.50;67.10;;;;;;4990063;28;20670;-68
2022/06/08 07:17:06;;;;;;;7.57;4.03;;;17.40;67.50;;;;;;4979354;28;20218;-67
2022/06/08 07:19:31;;;;;;;6.17;3.57;;;17.40;72.70;;;;;;4993334;28;20266;-67
2022/06/08 07:21:57;;;;;;;10.40;4.45;;;17.30;79.20;;;;;;4982903;28;20192;-68
2022/06/08 07:24:31;;;;;;;11.65;4.57;;;17.40;89.10;;;;;;4980394;28;20325;-69
2022/06/08 07:26:58;;;;;;;6.50;3.47;;;17.40;79.10;;;;;;4988930;28;20642;-68
2022/06/08 07:29:23;;;;;;;9.40;3.90;;;17.40;63.60;;;;;;4976303;28;20254;-67
2022/06/08 07:31:49;;;;;;;10.33;3.80;;;17.40;76.50;;;;;;4978618;28;20679;-69
2022/06/08 07:34:15;;;;;;;8.53;5.07;;;17.50;74.90;;;;;;4987891;28;20213;-68
2022/06/08 07:36:44;;;;;;;11.45;4.88;;;17.60;72.20;;;;;;4993436;28;20187;-68
2022/06/08 07:39:10;;;;;;;9.40;4.73;;;17.80;70.70;;;;;;4989527;28;20183;-68
2022/06/08 07:41:36;;;;;;;8.45;4.28;;;17.70;63.40;;;;;;4984123;28;20537;-68
2022/06/08 07:44:02;;;;;;;8.25;4.82;;;17.60;60.90;;;;;;4984918;28;20187;-68
2022/06/08 07:46:29;;;;;;;6.38;3.83;;;17.80;64.00;;;;;;4995928;28;20203;-67
2022/06/08 07:51:40;;;;;;;8.40;5.37;;;17.70;66.30;;;;;;4980778;28;20231;-69
2022/06/08 07:54:06;;;;;;;6.13;3.90;;;17.60;83.20;;;;;;4986065;28;20219;-67
2022/06/08 07:56:32;;;;;;;9.40;4.18;;;17.60;74.70;;;;;;4990300;28;20665;-68
2022/06/08 07:58:57;;;;;;;10.57;4.17;;;17.60;77.90;;;;;;4993650;28;20182;-68
2022/06/08 08:01:23;;;;;;;10.43;4.03;;;17.60;89.40;;;;;;4988652;28;20187;-70
2022/06/08 08:03:48;;;;;;;7.07;3.70;;;17.80;81.10;;;;;;4978463;28;20540;-70
2022/06/08 08:06:14;;;;;;;8.60;3.95;;;18.00;61.80;;;;;;4981362;28;20227;-71
2022/06/08 08:08:40;;;;;;;6.95;4.10;;;17.90;62.60;;;;;;4984621;28;20178;-70
2022/06/08 08:11:06;;;;;;;9.52;4.30;;;17.90;74.80;;;;;;4990357;28;20585;-69
2022/06/08 08:13:32;;;;;;;9.35;4.55;;;17.90;65.60;;;;;;4992438;28;20716;-70
2022/06/08 08:15:58;;;;;;;10.65;4.68;;;17.80;85.40;;;;;;4981593;28;20183;-70
2022/06/08 08:18:23;;;;;;;13.80;5.05;;;17.70;92.10;;;;;;4995275;28;20617;-71
2022/06/08 08:20:49;;;;;;;8.73;4.85;;;17.80;94.10;;;;;;4989539;28;20681;-69
2022/06/08 08:23:15;;;;;;;10.67;5.20;;;17.60;86.80;;;;;;4985029;28;20240;-71
2022/06/08 08:25:41;;;;;;;13.27;6.00;;;17.40;98.40;;;;;;4991323;28;20215;-70
2022/06/08 08:28:07;;;;;;;13.07;6.35;;;17.40;99.90;;;;;;4986660;28;20262;-70
2022/06/08 08:30:34;;;;;;;12.77;6.47;;;17.30;99.90;;;;;;4986113;28;20697;-70
2022/06/08 08:33:00;;;;;;;15.53;6.73;;;17.20;99.90;;;;;;4986615;28;20670;-70
2022/06/08 08:35:27;;;;;;;10.43;6.53;;;17.10;99.90;;;;;;4994133;28;20215;-70
2022/06/08 08:37:54;;;;;;;12.20;6.20;;;17.00;99.90;;;;;;4993658;28;20202;-69
2022/06/08 08:40:33;;;;;;;9.87;5.70;;;16.90;99.90;;;;;;4975348;28;20180;-69
2022/06/08 08:42:59;;;;;;;11.00;5.50;;;16.90;99.90;;;;;;4988664;28;20167;-69
2022/06/08 08:45:27;;;;;;;9.10;4.77;;;16.80;99.90;;;;;;4997419;28;20175;-70
2022/06/08 08:48:12;;;;;;;10.70;5.80;;;16.80;99.90;;;;;;4983312;28;20207;-70
2022/06/08 08:50:48;;;;;;;13.20;5.27;;;16.80;99.90;;;;;;4984270;28;20625;-70
2022/06/08 08:53:26;;;;;;;11.57;5.53;;;16.80;99.90;;;;;;5002545;28;20217;-70
2022/06/08 08:56:03;;;;;;;14.00;4.63;;;16.70;99.90;;;;;;4985131;28;20254;-69
2022/06/08 08:58:41;;;;;;;15.40;5.00;;;16.70;99.90;;;;;;5000741;28;20175;-71
2022/06/08 09:01:24;;;;;;;10.93;5.17;;;16.50;99.90;;;;;;4990294;28;20183;-70
2022/06/08 09:03:54;;;;;;;7.97;4.07;;;16.50;99.90;;;;;;4976467;28;20220;-69
2022/06/08 09:06:22;;;;;;;7.30;4.47;;;16.40;99.90;;;;;;4979474;28;20179;-69
2022/06/08 09:08:51;;;;;;;6.83;4.77;;;16.30;99.90;;;;;;4990252;28;20186;-71
2022/06/08 09:11:34;;;;;;;8.80;4.60;;;16.20;99.90;;;;;;4985985;28;20663;-70
2022/06/08 09:14:44;;;;;;;10.33;4.53;;;16.20;99.90;;;;;;4988139;28;20183;-70
2022/06/08 09:17:17;;;;;;;7.23;3.93;;;16.00;99.90;;;;;;4982108;28;20211;-70
2022/06/08 09:19:46;;;;;;;9.10;4.20;;;15.80;99.90;;;;;;4993938;28;20655;-69
2022/06/08 09:22:13;;;;;;;10.67;3.87;;;15.80;99.90;;;;;;4994073;28;20654;-70
2022/06/08 09:24:54;;;;;;;7.83;3.50;;;15.80;99.90;;;;;;4991567;28;20222;-68
2022/06/08 09:27:31;;;;;;;5.23;3.37;;;15.70;99.90;;;;;;5002788;28;20233;-70
2022/06/08 09:30:12;;;;;;;6.27;3.40;;;15.60;99.90;;;;;;4981699;28;20202;-71
2022/06/08 09:32:39;;;;;;;6.77;3.30;;;15.50;99.90;;;;;;4981300;28;20219;-69
2022/06/08 09:35:22;;;;;;;5.60;3.40;;;15.50;99.90;;;;;;4996766;28;20226;-69
2022/06/08 09:37:50;;;;;;;8.10;3.97;;;15.40;99.90;;;;;;5001245;28;20247;-71
2022/06/08 09:40:38;;;;;;;9.33;4.70;;;15.50;99.90;;;;;;4986296;28;20290;-70
2022/06/08 09:43:40;;;;;;;8.23;3.77;;;15.60;99.90;;;;;;4987273;28;20215;-69
2022/06/08 09:51:25;;;;;;;8.17;3.90;;;15.60;99.90;;;;;;4985314;28;20184;-68
2022/06/08 09:52:46;;;;;;;7.73;3.27;;;15.60;99.90;;;;;;4960406;28;20297;-69
2022/06/08 09:55:23;;;;;;;5.70;4.13;;;15.70;99.90;;;;;;4964578;28;20202;-69
2022/06/08 09:58:32;;;;;;;10.27;3.70;;;15.80;99.90;;;;;;4962781;28;20690;-69
2022/06/08 10:01:14;;;;;;;7.03;3.80;;;15.80;99.90;;;;;;4960702;28;20211;-71
2022/06/08 10:03:48;;;;;;;5.37;3.70;;;15.80;99.90;;;;;;4968016;28;20187;-69
2022/06/08 10:06:41;;;;;;;5.30;3.40;;;15.90;99.90;;;;;;4968781;28;20175;-70
2022/06/08 10:09:59;;;;;;;9.70;3.60;;;15.80;99.90;;;;;;4970574;28;20188;-70
2022/06/08 10:12:43;;;;;;;6.17;3.53;;;15.80;99.90;;;;;;4895109;29;20342;-68
2022/06/08 10:15:32;;;;;;;7.17;3.40;;;15.80;99.90;;;;;;4896535;29;20194;-70
2022/06/08 10:18:22;;;;;;;5.23;3.73;;;15.80;99.90;;;;;;4892113;29;20194;-70
2022/06/08 10:20:52;;;;;;;4.93;3.30;;;15.70;99.90;;;;;;4901220;29;20186;-69
2022/06/08 10:23:42;;;;;;;6.73;3.10;;;15.80;99.90;;;;;;4882518;29;20774;-68
2022/06/08 10:26:38;;;;;;;7.07;3.40;;;15.60;99.90;;;;;;4878298;29;20231;-70
2022/06/08 10:29:25;;;;;;;5.03;3.00;;;15.80;99.90;;;;;;4899750;29;20193;-69
2022/06/08 10:32:29;;;;;;;5.33;3.50;;;15.70;99.90;;;;;;4918395;29;20189;-69
2022/06/08 10:34:55;;;;;;;6.90;3.10;;;15.80;99.90;;;;;;4922881;29;20197;-69
2022/06/08 10:37:29;;;;;;;7.10;3.20;;;15.80;99.90;;;;;;4923038;29;20178;-68
2022/06/08 10:39:55;;;;;;;4.67;3.17;;;15.80;99.90;;;;;;4913696;29;20572;-69
2022/06/08 10:42:41;;;;;;;4.03;3.20;;;15.80;99.90;;;;;;4919017;29;20192;-70
2022/06/08 10:45:26;;;;;;;5.63;2.60;;;15.80;99.90;;;;;;4923865;29;20326;-70
2022/06/08 10:48:26;;;;;;;4.67;3.43;;;15.70;99.90;;;;;;4965230;28;20199;-69
2022/06/08 10:51:09;;;;;;;4.57;3.20;;;15.70;99.90;;;;;;4972223;28;20195;-70
2022/06/08 10:56:47;;;;;;;4.10;2.90;;;15.80;99.90;;;;;;4964194;28;20217;-70
2022/06/08 10:59:18;;;;;;;3.83;2.70;;;15.80;99.90;;;;;;4972639;28;20195;-70
2022/06/08 11:01:50;;;;;;;3.40;3.10;;;15.80;99.90;;;;;;4963050;28;20188;-71
2022/06/08 11:04:27;;;;;;;5.47;3.07;;;15.90;99.90;;;;;;4966628;28;20282;-71
2022/06/08 11:07:02;;;;;;;4.60;2.80;;;15.90;99.90;;;;;;4964553;28;20187;-70
2022/06/08 11:09:33;;;;;;;6.00;2.67;;;15.90;99.90;;;;;;4947143;28;20523;-70
2022/06/08 11:12:36;;;;;;;3.30;3.00;;;16.00;99.90;;;;;;4968729;28;20203;-70
2022/06/08 11:15:21;;;;;;;5.73;3.13;;;16.00;99.90;;;;;;4964684;28;20234;-69
2022/06/08 11:17:58;;;;;;;3.80;1.80;;;16.00;99.90;;;;;;4968187;28;20195;-69
2022/06/08 11:20:37;;;;;;;4.93;2.63;;;16.00;99.90;;;;;;4966942;28;20278;-69
2022/06/08 11:23:12;;;;;;;3.17;2.47;;;16.10;99.90;;;;;;4963533;28;20230;-69
2022/06/08 11:26:04;;;;;;;6.53;4.13;;;16.10;99.90;;;;;;4982044;28;20269;-69
2022/06/08 11:28:44;;;;;;;3.50;3.10;;;16.20;99.90;;;;;;4979332;28;20675;-69
2022/06/08 11:31:30;;;;;;;2.53;2.30;;;16.30;99.90;;;;;;4997268;28;20240;-69
2022/06/08 11:34:19;;;;;;;2.90;2.60;;;16.30;99.90;;;;;;4976596;28;20299;-69
2022/06/08 11:36:50;;;;;;;4.77;2.67;;;16.20;99.90;;;;;;5001657;28;20171;-69
2022/06/08 11:39:47;;;;;;;7.27;3.23;;;16.40;99.90;;;;;;4987815;28;20175;-69
2022/06/08 11:42:24;;;;;;;2.93;2.60;;;16.60;99.90;;;;;;4987162;28;20194;-69
2022/06/08 11:45:15;;;;;;;2.03;1.80;;;16.70;99.90;;;;;;4993197;28;20167;-69
2022/06/08 11:48:00;;;;;;;2.57;2.13;;;16.60;99.90;;;;;;4994355;28;20218;-69
2022/06/08 11:50:39;;;;;;;2.13;1.93;;;16.60;99.90;;;;;;4982718;28;20195;-72
2022/06/08 11:53:14;;;;;;;2.10;2.00;;;16.50;99.90;;;;;;4990907;28;20639;-70
2022/06/08 11:56:07;;;;;;;3.07;2.20;;;16.60;99.90;;;;;;4989435;28;20261;-70
2022/06/08 11:58:34;;;;;;;3.33;2.03;;;16.70;99.90;;;;;;4990454;28;20180;-71
2022/06/08 12:01:06;;;;;;;2.43;2.10;;;16.70;99.90;;;;;;4996297;28;20638;-70
2022/06/08 12:03:44;;;;;;;4.63;2.70;;;16.70;99.90;;;;;;5002183;28;20186;-70
2022/06/08 12:06:14;;;;;;;2.50;2.30;;;16.80;99.90;;;;;;4984418;28;20226;-69
2022/06/08 12:08:42;;;;;;;1.83;1.67;;;17.00;99.90;;;;;;4987229;28;20178;-68
2022/06/08 12:11:17;;;;;;;2.53;1.90;;;17.00;99.90;;;;;;4984721;28;20318;-70
2022/06/08 12:13:55;;;;;;;6.93;2.00;;;17.00;99.90;;;;;;4982278;28;20206;-71
2022/06/08 12:16:35;;;;;;;2.00;1.77;;;17.10;99.90;;;;;;4978072;28;20181;-70
2022/06/08 12:19:17;;;;;;;3.03;1.80;;;17.20;99.90;;;;;;5001755;28;20172;-70
2022/06/08 12:21:46;;;;;;;3.37;1.73;;;17.10;99.90;;;;;;4996978;28;20556;-69
2022/06/08 12:24:11;;;;;;;2.63;2.33;;;17.00;99.90;;;;;;5008542;28;20306;-69
2022/06/08 12:26:55;;;;;;;5.57;2.00;;;17.10;99.90;;;;;;4997304;28;20277;-70
2022/06/08 12:29:52;;;;;;;2.93;2.17;;;17.00;99.90;;;;;;5000486;28;20241;-71
2022/06/08 12:32:22;;;;;;;4.00;1.97;;;17.10;99.90;;;;;;4976342;28;20628;-70
2022/06/08 12:35:22;;;;;;;4.30;2.13;;;16.90;99.90;;;;;;5003414;28;20214;-70
2022/06/08 12:37:48;;;;;;;2.53;2.33;;;17.00;99.90;;;;;;4985746;28;20194;-70
2022/06/08 12:40:17;;;;;;;4.57;2.30;;;17.20;99.90;;;;;;5009069;28;20169;-71
2022/06/08 12:42:49;;;;;;;3.57;2.30;;;17.40;99.90;;;;;;4996099;28;20174;-72
2022/06/08 12:45:30;;;;;;;6.20;2.47;;;17.40;99.90;;;;;;5000856;28;20270;-71
2022/06/08 12:47:56;;;;;;;5.57;2.60;;;17.30;99.90;;;;;;5008811;28;20182;-71
2022/06/08 12:50:25;;;;;;;4.27;2.63;;;17.30;99.90;;;;;;4996190;28;20163;-70
2022/06/08 12:52:52;;;;;;;7.05;2.70;;;17.40;99.90;;;;;;5007049;28;20305;-70
2022/06/08 12:55:26;;;;;;;5.88;2.97;;;17.40;99.90;;;;;;5007390;28;20512;-70
2022/06/08 12:57:51;;;;;;;6.38;2.70;;;17.40;99.90;;;;;;4999252;28;20266;-70
2022/06/08 13:00:27;;;;;;;5.50;3.10;;;17.40;99.90;;;;;;5011671;28;20611;-70
2022/06/08 13:02:53;;;;;;;3.70;2.83;;;17.50;99.90;;;;;;5003188;28;20566;-70
2022/06/08 13:05:22;;;;;;;4.20;3.08;;;17.50;99.90;;;;;;5004002;28;20202;-70
2022/06/08 13:07:49;;;;;;;4.00;2.65;;;17.60;99.90;;;;;;5012126;28;20170;-72
2022/06/08 13:10:15;;;;;;;5.72;3.10;;;17.70;99.90;;;;;;4999092;28;20234;-71
2022/06/08 13:12:44;;;;;;;7.32;3.40;;;17.80;99.90;;;;;;5008390;28;20320;-70
2022/06/08 13:15:26;;;;;;;7.32;3.05;;;17.80;99.90;;;;;;5006556;28;20181;-70
2022/06/08 13:17:51;;;;;;;6.13;3.50;;;18.10;99.90;;;;;;4999931;28;20167;-71
2022/06/08 13:20:29;;;;;;;8.18;3.70;;;18.20;99.90;;;;;;5015514;28;20245;-70
2022/06/08 13:22:55;;;;;;;8.82;3.38;;;18.20;99.90;;;;;;4998029;28;20571;-72
2022/06/08 13:25:23;;;;;;;6.88;3.53;;;18.30;99.90;;;;;;4996239;28;20171;-71
2022/06/08 13:27:51;;;;;;;7.32;3.90;;;18.50;99.90;;;;;;4995933;28;20203;-71